Time;durP1;ratioP1;P1;durP2;ratioP2;P2;SDS_P1;SDS_P2;PMS_P1;PMS_P2;Temp;Humidity;BMP_temperature;BMP_pressure;BME280_temperature;BME280_humidity;BME280_pressure;Samples;Min_cycle;Max_cycle;Signal;HPM_P1;HPM_P2
2022/09/18 00:00:10;;;;;;;10.40;1.30;;;;;;;11.40;100.00;101271.19;5069980;28;20013;-81
2022/09/18 00:02:38;;;;;;;5.50;1.00;;;;;;;11.38;100.00;101271.31;5044741;28;20128;-81
2022/09/18 00:05:12;;;;;;;18.50;1.67;;;;;;;11.47;100.00;101272.47;5012429;28;20345;-81
2022/09/18 00:07:47;;;;;;;4.97;1.23;;;;;;;11.40;100.00;101276.69;5031369;28;20037;-81
2022/09/18 00:10:30;;;;;;;6.73;1.10;;;;;;;11.39;100.00;101280.41;5031906;28;20057;-81
2022/09/18 00:13:02;;;;;;;9.35;1.38;;;;;;;11.39;100.00;101274.91;5042028;28;20047;-81
2022/09/18 00:15:36;;;;;;;10.23;1.42;;;;;;;11.41;100.00;101270.19;5043590;28;20098;-82
2022/09/18 00:18:07;;;;;;;7.10;1.05;;;;;;;11.37;100.00;101272.28;5026618;28;20045;-80
2022/09/18 00:20:43;;;;;;;6.07;1.00;;;;;;;11.41;100.00;101272.94;5034449;28;20036;-81
2022/09/18 00:23:18;;;;;;;8.30;1.20;;;;;;;11.33;100.00;101267.16;5041974;28;20037;-81
2022/09/18 00:25:52;;;;;;;9.55;1.17;;;;;;;11.45;100.00;101284.56;5043358;28;20010;-81
2022/09/18 00:28:20;;;;;;;11.32;1.58;;;;;;;11.42;100.00;101287.53;5042706;28;20036;-81
2022/09/18 00:30:50;;;;;;;7.35;1.95;;;;;;;11.37;100.00;101276.91;5044578;28;20029;-81
2022/09/18 00:33:20;;;;;;;12.20;1.13;;;;;;;11.31;100.00;101275.50;5070537;28;20040;-81
2022/09/18 00:35:50;;;;;;;12.05;1.50;;;;;;;11.26;100.00;101277.72;5009465;28;20041;-81
2022/09/18 00:38:28;;;;;;;9.90;1.17;;;;;;;11.18;100.00;101272.81;5056491;28;20036;-82
2022/09/18 00:41:03;;;;;;;14.68;1.52;;;;;;;11.27;100.00;101276.72;5033832;28;20049;-82
2022/09/18 00:43:32;;;;;;;11.32;1.25;;;;;;;11.22;100.00;101271.59;5055434;28;20052;-81
2022/09/18 00:46:32;;;;;;;7.40;1.67;;;;;;;11.20;100.00;101272.72;5044944;28;20374;-81
2022/09/18 00:49:24;;;;;;;12.60;1.45;;;;;;;11.20;100.00;101280.94;5046084;28;20045;-81
2022/09/18 00:51:57;;;;;;;6.00;2.20;;;;;;;11.18;100.00;101278.31;5064346;28;20053;-81
2022/09/18 00:54:30;;;;;;;11.50;2.08;;;;;;;11.12;100.00;101286.13;5058525;28;20028;-81
2022/09/18 00:57:08;;;;;;;17.42;1.98;;;;;;;11.17;100.00;101281.16;5061411;28;20032;-81
2022/09/18 00:59:36;;;;;;;13.10;2.13;;;;;;;11.06;100.00;101270.97;5067521;28;20020;-81
2022/09/18 01:02:03;;;;;;;13.55;2.63;;;;;;;11.17;100.00;101273.81;5047889;28;20032;-81
2022/09/18 01:04:30;;;;;;;17.83;3.08;;;;;;;11.14;100.00;101271.28;5045433;28;20496;-82
2022/09/18 01:07:28;;;;;;;20.15;3.97;;;;;;;11.27;100.00;101281.34;5043354;28;20036;-81
2022/09/18 01:10:09;;;;;;;19.88;3.80;;;;;;;11.24;100.00;101279.69;5048289;28;20032;-81
2022/09/18 01:12:51;;;;;;;19.80;3.85;;;;;;;11.14;100.00;101278.66;5044804;28;20048;-81
2022/09/18 01:16:03;;;;;;;9.55;3.28;;;;;;;11.28;100.00;101283.97;5045753;28;20477;-80
2022/09/18 01:18:52;;;;;;;18.27;3.20;;;;;;;11.29;100.00;101284.84;5054489;28;20095;-81
2022/09/18 01:21:37;;;;;;;13.48;3.35;;;;;;;11.21;100.00;101275.34;5065387;28;20500;-81
2022/09/18 01:24:22;;;;;;;12.82;3.67;;;;;;;11.17;100.00;101267.47;5050427;28;20086;-82
2022/09/18 01:27:05;;;;;;;20.20;3.30;;;;;;;11.18;100.00;101271.94;5054233;28;20136;-81
2022/09/18 01:29:45;;;;;;;12.73;3.22;;;;;;;11.07;100.00;101267.25;5042549;28;20075;-81
2022/09/18 01:32:45;;;;;;;20.20;3.25;;;;;;;11.16;100.00;101280.25;5053844;28;20089;-82
2022/09/18 01:35:19;;;;;;;18.63;3.50;;;;;;;11.12;100.00;101276.00;5047630;28;20112;-81
2022/09/18 01:38:05;;;;;;;19.67;2.92;;;;;;;11.13;100.00;101275.00;5060102;28;20029;-82
2022/09/18 01:40:52;;;;;;;12.73;2.22;;;;;;;11.10;100.00;101264.31;5035264;28;20105;-81
2022/09/18 01:43:20;;;;;;;13.85;2.30;;;;;;;11.14;100.00;101273.16;5074965;28;20021;-81
2022/09/18 01:45:53;;;;;;;19.00;2.53;;;;;;;11.13;100.00;101263.19;5047701;28;20025;-81
2022/09/18 01:48:35;;;;;;;15.40;2.63;;;;;;;11.10;100.00;101264.31;5069887;28;20029;-81
2022/09/18 01:51:19;;;;;;;9.97;2.63;;;;;;;11.04;100.00;101268.34;5072319;28;20033;-81
2022/09/18 01:54:01;;;;;;;17.25;3.00;;;;;;;11.09;100.00;101273.50;5044657;28;20318;-81
2022/09/18 01:56:44;;;;;;;14.52;2.55;;;;;;;11.09;100.00;101275.38;5040503;28;20029;-81
2022/09/18 01:59:31;;;;;;;11.27;2.13;;;;;;;11.06;100.00;101262.75;5061748;28;20033;-81
2022/09/18 02:02:14;;;;;;;8.77;2.15;;;;;;;11.16;100.00;101260.22;5061030;28;20029;-81
2022/09/18 02:04:43;;;;;;;13.68;2.30;;;;;;;11.18;100.00;101261.84;5060575;28;20032;-81
2022/09/18 02:07:19;;;;;;;12.02;2.30;;;;;;;11.14;100.00;101263.06;5043945;28;20025;-81
2022/09/18 02:10:00;;;;;;;15.43;2.10;;;;;;;11.13;100.00;101252.22;5046024;28;20037;-81
2022/09/18 02:12:29;;;;;;;8.07;1.77;;;;;;;11.00;100.00;101257.75;5062082;28;20033;-81
2022/09/18 02:15:01;;;;;;;10.68;2.00;;;;;;;11.06;100.00;101254.53;5058017;28;20029;-81
2022/09/18 02:17:52;;;;;;;13.10;2.33;;;;;;;11.04;100.00;101254.66;5057212;28;20494;-81
2022/09/18 02:20:24;;;;;;;17.38;2.15;;;;;;;11.10;100.00;101257.91;5073580;28;20025;-81
2022/09/18 02:23:04;;;;;;;13.73;1.92;;;;;;;11.02;100.00;101261.25;5057829;28;20065;-81
2022/09/18 02:25:53;;;;;;;16.45;3.10;;;;;;;11.09;100.00;101250.72;5057275;28;20013;-82
2022/09/18 02:28:27;;;;;;;15.48;2.55;;;;;;;11.06;100.00;101249.06;5069731;28;20036;-81
2022/09/18 02:30:53;;;;;;;14.88;2.15;;;;;;;11.11;100.00;101257.81;5059335;28;20017;-81
2022/09/18 02:33:30;;;;;;;13.02;1.95;;;;;;;11.02;100.00;101255.78;5044292;28;20029;-82
2022/09/18 02:36:19;;;;;;;16.88;1.60;;;;;;;10.99;100.00;101251.38;5059741;28;20053;-82
2022/09/18 02:38:56;;;;;;;13.85;1.88;;;;;;;10.99;100.00;101239.56;5058144;28;20040;-82
2022/09/18 02:41:33;;;;;;;9.15;1.98;;;;;;;10.97;100.00;101236.94;5041413;28;20129;-82
2022/09/18 02:44:21;;;;;;;12.18;2.10;;;;;;;10.93;100.00;101248.22;5057699;28;20056;-81
2022/09/18 02:47:13;;;;;;;20.75;2.45;;;;;;;10.89;100.00;101247.59;5051554;28;20040;-81
2022/09/18 02:50:17;;;;;;;9.80;2.78;;;;;;;10.94;100.00;101244.53;5074009;28;20032;-81
2022/09/18 02:52:45;;;;;;;13.80;3.55;;;;;;;10.94;100.00;101241.78;5037248;28;20021;-81
2022/09/18 02:55:27;;;;;;;10.43;3.63;;;;;;;10.96;100.00;101232.44;5057352;28;20036;-81
2022/09/18 02:58:02;;;;;;;14.35;4.80;;;;;;;10.93;100.00;101231.78;5061238;28;20072;-81
2022/09/18 03:00:34;;;;;;;15.65;4.82;;;;;;;10.97;100.00;101228.72;5056081;28;20026;-81
2022/09/18 03:03:00;;;;;;;14.15;4.30;;;;;;;11.02;100.00;101225.63;5041133;28;20036;-81
2022/09/18 03:05:28;;;;;;;18.60;5.05;;;;;;;10.95;100.00;101227.06;5039197;28;20025;-80
2022/09/18 03:08:06;;;;;;;28.52;5.00;;;;;;;10.91;100.00;101220.09;5056542;28;20040;-80
2022/09/18 03:10:38;;;;;;;13.95;4.40;;;;;;;10.93;100.00;101231.78;5041161;28;20400;-80
2022/09/18 03:13:14;;;;;;;21.05;5.88;;;;;;;10.93;100.00;101221.69;5040205;28;20045;-81
2022/09/18 03:15:42;;;;;;;16.83;4.68;;;;;;;10.92;100.00;101225.44;5051932;28;20025;-81
2022/09/18 03:18:21;;;;;;;14.75;4.68;;;;;;;10.94;100.00;101231.69;5016405;28;20044;-81
2022/09/18 03:20:52;;;;;;;24.40;5.03;;;;;;;10.97;100.00;101230.56;5060811;28;20041;-81
2022/09/18 03:23:20;;;;;;;16.08;4.70;;;;;;;10.93;100.00;101212.63;5024262;28;20030;-81
2022/09/18 03:25:55;;;;;;;26.55;5.10;;;;;;;10.96;100.00;101213.25;5055086;28;20477;-80
2022/09/18 03:28:22;;;;;;;22.30;4.82;;;;;;;11.02;100.00;101218.28;5056533;28;20029;-80
2022/09/18 03:30:49;;;;;;;16.48;3.97;;;;;;;10.94;100.00;101209.75;5057560;28;20032;-81
2022/09/18 03:33:15;;;;;;;16.20;4.22;;;;;;;10.96;100.00;101213.25;5074572;28;20045;-81
2022/09/18 03:35:42;;;;;;;18.00;3.58;;;;;;;10.96;100.00;101224.22;5037793;28;20049;-81
2022/09/18 03:38:15;;;;;;;18.77;3.70;;;;;;;10.88;100.00;101218.44;5059714;28;20561;-81
2022/09/18 03:40:44;;;;;;;24.35;3.92;;;;;;;10.94;100.00;101212.50;5040258;28;20154;-80
2022/09/18 03:43:13;;;;;;;15.40;3.60;;;;;;;10.97;100.00;101219.59;5039154;28;20029;-81
2022/09/18 03:45:41;;;;;;;11.70;3.50;;;;;;;10.97;100.00;101219.59;5042187;28;20064;-80
2022/09/18 03:48:07;;;;;;;16.83;3.42;;;;;;;10.97;100.00;101208.63;5064314;28;20029;-80
2022/09/18 03:50:35;;;;;;;16.45;2.63;;;;;;;11.02;100.00;101218.28;5014215;28;20028;-81
2022/09/18 03:53:07;;;;;;;19.50;3.85;;;;;;;11.03;100.00;101216.41;5053286;28;20044;-80
2022/09/18 03:55:35;;;;;;;18.90;3.78;;;;;;;11.09;100.00;101215.94;5052491;28;20126;-80
2022/09/18 03:58:02;;;;;;;15.40;3.30;;;;;;;11.03;100.00;101228.25;5051229;28;20034;-80
2022/09/18 04:00:35;;;;;;;16.45;2.50;;;;;;;11.05;100.00;101217.16;5044892;28;20053;-79
2022/09/18 04:03:02;;;;;;;23.58;2.83;;;;;;;11.01;100.00;101207.44;5023769;28;20096;-79
2022/09/18 04:05:30;;;;;;;16.25;2.72;;;;;;;11.08;100.00;101216.06;5057494;28;20484;-79
2022/09/18 04:08:05;;;;;;;26.50;3.50;;;;;;;11.04;100.00;101219.03;5057649;28;20108;-80
2022/09/18 04:10:35;;;;;;;15.55;2.70;;;;;;;11.03;100.00;101210.94;5058643;28;20061;-81
2022/09/18 04:13:02;;;;;;;17.98;2.45;;;;;;;11.10;100.00;101222.31;5073093;28;20123;-79
2022/09/18 04:15:27;;;;;;;36.25;4.18;;;;;;;11.08;100.00;101210.59;5051260;28;20044;-79
2022/09/18 04:17:55;;;;;;;23.25;2.35;;;;;;;11.16;100.00;101217.22;5056246;28;20041;-81
2022/09/18 04:20:30;;;;;;;20.80;2.22;;;;;;;11.10;100.00;101208.59;5049430;28;20037;-79
2022/09/18 04:23:05;;;;;;;14.68;1.90;;;;;;;11.03;100.00;101203.59;5056356;28;20075;-79
2022/09/18 04:25:41;;;;;;;28.98;3.17;;;;;;;11.06;100.00;101197.00;5042382;28;20033;-78
2022/09/18 04:28:27;;;;;;;20.60;2.63;;;;;;;11.03;100.00;101197.22;5056796;28;20040;-78
2022/09/18 04:30:57;;;;;;;12.93;2.35;;;;;;;11.14;100.00;101205.50;5045022;28;20516;-78
2022/09/18 04:33:26;;;;;;;15.63;2.47;;;;;;;11.16;100.00;101200.78;5061463;28;20029;-78
2022/09/18 04:36:02;;;;;;;14.90;2.58;;;;;;;11.09;100.00;101196.78;5059874;28;20052;-79
2022/09/18 04:38:29;;;;;;;11.82;1.75;;;;;;;11.10;100.00;101205.84;5044848;28;20037;-79
2022/09/18 04:41:03;;;;;;;14.90;1.65;;;;;;;11.13;100.00;101206.50;5046071;28;20037;-79
2022/09/18 04:43:31;;;;;;;13.98;2.08;;;;;;;11.18;100.00;101204.31;5057176;28;20040;-79
2022/09/18 04:46:02;;;;;;;12.35;1.50;;;;;;;11.14;100.00;101200.03;5053659;28;20032;-79
2022/09/18 04:48:48;;;;;;;12.95;1.52;;;;;;;11.08;100.00;101205.97;5061270;28;20432;-79
2022/09/18 04:51:14;;;;;;;12.57;2.33;;;;;;;11.12;100.00;101193.81;5058279;28;20738;-79
2022/09/18 04:53:44;;;;;;;16.73;1.70;;;;;;;11.13;100.00;101192.78;5060883;28;20472;-79
2022/09/18 04:56:10;;;;;;;11.65;1.58;;;;;;;11.01;100.00;101191.00;5061012;28;20047;-79
2022/09/18 04:58:35;;;;;;;17.75;1.75;;;;;;;11.03;100.00;101189.91;5058922;28;20110;-79
2022/09/18 05:01:04;;;;;;;16.90;1.92;;;;;;;11.03;100.00;101189.00;5048549;28;20025;-79
2022/09/18 05:03:36;;;;;;;19.73;2.50;;;;;;;11.12;100.00;101201.16;5063864;28;20020;-79
2022/09/18 05:06:05;;;;;;;13.00;2.15;;;;;;;11.08;100.00;101202.38;5073533;28;20055;-79
2022/09/18 05:08:39;;;;;;;18.42;2.78;;;;;;;11.11;100.00;101204.88;5044041;28;20033;-79
2022/09/18 05:11:17;;;;;;;12.98;1.50;;;;;;;11.13;100.00;101205.63;5041517;28;20029;-79
2022/09/18 05:13:49;;;;;;;11.70;1.33;;;;;;;11.10;100.00;101211.34;5029175;28;20481;-79
2022/09/18 05:16:16;;;;;;;16.33;1.38;;;;;;;11.10;100.00;101214.06;5055246;28;20059;-79
2022/09/18 05:18:55;;;;;;;15.88;1.70;;;;;;;11.11;100.00;101202.13;5040330;28;20083;-79
2022/09/18 05:21:25;;;;;;;11.25;1.27;;;;;;;11.02;100.00;101203.72;5056989;28;20028;-79
2022/09/18 05:23:51;;;;;;;12.85;2.35;;;;;;;11.04;100.00;101191.63;5056983;28;20037;-79
2022/09/18 05:26:23;;;;;;;28.55;2.42;;;;;;;11.07;100.00;101190.53;5056146;28;20037;-79
2022/09/18 05:28:54;;;;;;;13.82;2.00;;;;;;;11.08;100.00;101197.75;5042496;28;20033;-79
2022/09/18 05:31:20;;;;;;;10.82;1.42;;;;;;;11.09;100.00;101201.38;5052772;28;20052;-79
2022/09/18 05:33:58;;;;;;;11.95;1.63;;;;;;;11.06;100.00;101204.34;5065496;28;20036;-80
2022/09/18 05:36:34;;;;;;;22.27;1.50;;;;;;;11.10;100.00;101201.28;5049598;28;20052;-79
2022/09/18 05:39:07;;;;;;;17.42;1.85;;;;;;;11.12;100.00;101206.63;5040778;28;20040;-79
2022/09/18 05:41:35;;;;;;;19.55;3.55;;;;;;;11.13;100.00;101202.88;5057167;28;20519;-79
2022/09/18 05:44:05;;;;;;;30.67;2.38;;;;;;;11.13;100.00;101211.09;5027068;28;20036;-80
2022/09/18 05:46:36;;;;;;;9.27;2.00;;;;;;;11.16;100.00;101200.78;5038113;28;20037;-79
2022/09/18 05:49:06;;;;;;;14.80;1.60;;;;;;;11.09;100.00;101205.00;5037179;28;20378;-79
2022/09/18 05:51:34;;;;;;;17.95;1.77;;;;;;;11.11;100.00;101204.88;5042923;28;20391;-80
2022/09/18 05:53:59;;;;;;;23.85;1.90;;;;;;;11.19;100.00;101205.16;5033624;28;20075;-80
2022/09/18 05:56:26;;;;;;;11.98;1.60;;;;;;;11.22;100.00;101208.53;5048745;28;20072;-79
2022/09/18 05:58:55;;;;;;;11.25;2.97;;;;;;;11.24;100.00;101207.56;5055676;28;20030;-79
2022/09/18 06:01:31;;;;;;;14.63;1.85;;;;;;;11.23;100.00;101206.66;5058746;28;20099;-80
2022/09/18 06:04:01;;;;;;;7.25;1.15;;;;;;;11.25;100.00;101209.28;5055481;28;20063;-80
2022/09/18 06:06:36;;;;;;;23.58;1.80;;;;;;;11.22;100.00;101196.72;5019395;28;20389;-80
2022/09/18 06:09:04;;;;;;;11.90;1.70;;;;;;;11.25;100.00;101196.47;5042676;28;20033;-79
2022/09/18 06:11:33;;;;;;;14.15;1.38;;;;;;;11.34;100.00;101197.63;5038763;28;20029;-79
2022/09/18 06:14:00;;;;;;;13.18;1.40;;;;;;;11.30;100.00;101207.97;5041744;28;20460;-80
2022/09/18 06:16:34;;;;;;;17.15;1.75;;;;;;;11.31;100.00;101206.09;5052645;28;20091;-79
2022/09/18 06:19:09;;;;;;;14.70;1.70;;;;;;;11.45;100.00;101196.81;5044113;28;20503;-79
2022/09/18 06:21:42;;;;;;;9.95;1.30;;;;;;;11.49;100.00;101209.28;5023382;28;20116;-80
2022/09/18 06:24:15;;;;;;;13.45;1.67;;;;;;;11.52;100.00;101217.28;5053920;28;20029;-80
2022/09/18 06:26:51;;;;;;;12.55;1.48;;;;;;;11.56;100.00;101222.41;5059174;28;20493;-79
2022/09/18 06:29:21;;;;;;;16.48;1.83;;;;;;;11.55;100.00;101225.25;5029727;28;20041;-80
2022/09/18 06:31:51;;;;;;;21.70;1.98;;;;;;;11.47;100.00;101211.28;5061266;28;20032;-80
2022/09/18 06:34:21;;;;;;;14.68;1.52;;;;;;;11.55;100.00;101198.72;5032558;28;20033;-80
2022/09/18 06:36:51;;;;;;;8.50;1.10;;;;;;;11.64;100.00;101196.25;5052419;28;20116;-80
2022/09/18 06:39:24;;;;;;;20.05;2.03;;;;;;;11.72;100.00;101186.44;5056564;28;20098;-80
2022/09/18 06:41:59;;;;;;;17.40;1.27;;;;;;;11.86;100.00;101189.97;5056590;28;20071;-79
2022/09/18 06:44:26;;;;;;;12.93;1.70;;;;;;;11.87;100.00;101189.84;5058649;28;20052;-80
2022/09/18 06:46:53;;;;;;;11.40;0.93;;;;;;;11.98;100.00;101194.47;5041869;28;20040;-79
2022/09/18 06:49:19;;;;;;;10.93;1.33;;;;;;;12.02;100.00;101201.50;5034033;28;20041;-79
2022/09/18 06:51:54;;;;;;;11.45;0.93;;;;;;;12.02;100.00;101195.09;5037308;28;20029;-78
2022/09/18 06:54:21;;;;;;;14.18;1.30;;;;;;;11.99;100.00;101190.75;5056998;28;20082;-78
2022/09/18 06:56:56;;;;;;;7.50;0.88;;;;;;;11.97;100.00;101191.84;5049858;28;20044;-78
2022/09/18 06:59:26;;;;;;;12.25;1.52;;;;;;;12.03;100.00;101199.59;5065513;28;20029;-78
2022/09/18 07:01:52;;;;;;;9.23;1.30;;;;;;;12.17;100.00;101201.22;5005404;28;20029;-78
2022/09/18 07:04:26;;;;;;;13.48;1.33;;;;;;;12.26;100.00;101198.63;5056348;28;20052;-78
2022/09/18 07:07:00;;;;;;;5.65;1.10;;;;;;;12.38;100.00;101201.38;5068991;28;20111;-77
2022/09/18 07:09:28;;;;;;;16.40;1.50;;;;;;;12.52;100.00;101197.53;5048779;28;20041;-78
2022/09/18 07:12:07;;;;;;;7.57;1.70;;;;;;;12.54;100.00;101196.38;5040091;28;20037;-77
2022/09/18 07:14:37;;;;;;;27.40;3.47;;;;;;;12.42;100.00;101209.25;5060427;28;20104;-78
2022/09/18 07:17:09;;;;;;;13.25;1.92;;;;;;;12.29;100.00;101211.25;5042519;28;20035;-78
2022/09/18 07:19:38;;;;;;;11.65;1.48;;;;;;;12.22;100.00;101213.59;5046123;28;20124;-78
2022/09/18 07:22:11;;;;;;;16.23;1.83;;;;;;;12.31;100.00;101196.41;5063816;28;20158;-78
2022/09/18 07:24:37;;;;;;;10.82;1.95;;;;;;;12.37;100.00;101195.03;5077021;28;20072;-78
2022/09/18 07:27:07;;;;;;;10.07;1.63;;;;;;;12.16;100.00;101194.00;5074095;28;20437;-78
2022/09/18 07:29:33;;;;;;;10.10;2.03;;;;;;;12.17;100.00;101207.63;5055773;28;20035;-78
2022/09/18 07:32:00;;;;;;;15.55;2.10;;;;;;;12.08;100.00;101198.22;5041841;28;20058;-77
2022/09/18 07:34:33;;;;;;;23.70;2.70;;;;;;;12.04;100.00;101196.75;5047001;28;20029;-78
2022/09/18 07:37:02;;;;;;;21.80;2.67;;;;;;;11.94;100.00;101191.13;5047493;28;20244;-78
2022/09/18 07:39:29;;;;;;;14.73;2.15;;;;;;;12.13;100.00;101193.28;5031819;28;20078;-78
2022/09/18 07:42:01;;;;;;;13.02;3.17;;;;;;;12.22;100.00;101202.63;5029498;28;20126;-77
2022/09/18 07:44:33;;;;;;;11.55;2.55;;;;;;;12.23;100.00;101198.00;5047412;28;20025;-79
2022/09/18 07:47:01;;;;;;;15.43;2.10;;;;;;;12.26;100.00;101206.84;5049972;28;20182;-78
2022/09/18 07:49:31;;;;;;;19.30;3.00;;;;;;;12.21;100.00;101200.88;5031604;28;20064;-78
2022/09/18 07:52:04;;;;;;;19.15;2.50;;;;;;;12.02;100.00;101201.50;5048408;28;20033;-78
2022/09/18 07:54:37;;;;;;;12.70;2.88;;;;;;;12.06;100.00;101196.63;5042628;28;20038;-79
2022/09/18 07:57:04;;;;;;;18.05;2.80;;;;;;;12.14;100.00;101205.13;5051321;28;20040;-79
2022/09/18 07:59:40;;;;;;;28.42;4.88;;;;;;;12.19;100.00;101197.38;5052333;28;20033;-80
2022/09/18 08:02:06;;;;;;;16.67;3.20;;;;;;;12.17;100.00;101188.41;5056754;28;20025;-80
2022/09/18 08:04:38;;;;;;;17.75;3.47;;;;;;;12.19;100.00;101186.41;5034101;28;20108;-79
2022/09/18 08:07:08;;;;;;;14.07;3.50;;;;;;;12.28;100.00;101177.44;5036977;28;20080;-80
2022/09/18 08:09:38;;;;;;;15.75;3.85;;;;;;;12.21;100.00;101178.91;5045460;28;20075;-79
2022/09/18 08:12:06;;;;;;;32.92;4.60;;;;;;;12.37;100.00;101183.16;5027113;28;20033;-79
2022/09/18 08:14:36;;;;;;;10.40;4.35;;;;;;;12.52;100.00;101181.91;5039569;28;20132;-79
2022/09/18 08:17:05;;;;;;;20.95;4.18;;;;;;;12.60;100.00;101167.53;5067939;28;20476;-80
2022/09/18 08:19:36;;;;;;;14.05;4.18;;;;;;;12.92;100.00;101167.63;5034995;28;21319;-78
2022/09/18 08:22:08;;;;;;;20.55;4.20;;;;;;;12.76;100.00;101170.75;5037175;28;20492;-80
2022/09/18 08:24:35;;;;;;;21.52;5.43;;;;;;;12.69;100.00;101177.75;5043721;28;20025;-79
2022/09/18 08:27:08;;;;;;;15.13;4.15;;;;;;;12.90;100.00;101180.59;5058096;28;20040;-79
2022/09/18 08:29:37;;;;;;;19.52;5.22;;;;;;;12.95;100.00;101185.69;5055543;28;20513;-79
2022/09/18 08:32:03;;;;;;;20.98;6.25;;;;;;;13.08;100.00;101182.78;5042078;28;20095;-77
2022/09/18 08:34:44;;;;;;;10.43;4.40;;;;;;;13.04;100.00;101199.53;5042143;28;20041;-77
2022/09/18 08:37:13;;;;;;;16.70;5.15;;;;;;;12.92;100.00;101189.59;5072940;28;20064;-77
2022/09/18 08:39:38;;;;;;;19.08;5.70;;;;;;;12.75;100.00;101195.63;5039890;28;20041;-78
2022/09/18 08:42:22;;;;;;;19.58;5.75;;;;;;;12.76;100.00;101206.47;5059085;28;20037;-78
2022/09/18 08:45:02;;;;;;;24.98;5.57;;;;;;;12.62;100.00;101191.13;5049811;28;20365;-79
2022/09/18 08:47:45;;;;;;;32.30;5.28;;;;;;;12.48;100.00;101185.91;5051523;28;20033;-79
2022/09/18 08:50:23;;;;;;;23.75;4.72;;;;;;;12.43;100.00;101188.13;5042224;28;20037;-78
2022/09/18 08:53:05;;;;;;;18.58;4.50;;;;;;;12.55;100.00;101181.66;5061059;28;20071;-78
2022/09/18 08:55:44;;;;;;;15.93;3.70;;;;;;;12.62;100.00;101188.38;5020316;28;20506;-76
2022/09/18 08:58:15;;;;;;;13.13;3.67;;;;;;;12.69;100.00;101188.75;5019601;28;20580;-77
2022/09/18 09:00:47;;;;;;;16.55;3.83;;;;;;;12.75;100.00;101190.13;5047318;28;20664;-77
2022/09/18 09:03:33;;;;;;;17.73;4.40;;;;;;;13.01;100.00;101191.56;5052859;28;20029;-77
2022/09/18 09:06:27;;;;;;;17.80;3.70;;;;;;;13.17;100.00;101182.88;5039057;28;20033;-79
2022/09/18 09:09:15;;;;;;;11.00;2.70;;;;;;;13.19;100.00;101175.38;5040758;28;20552;-79
2022/09/18 09:12:02;;;;;;;15.98;2.35;;;;;;;13.35;100.00;101190.63;5058379;28;20040;-79
2022/09/18 09:14:55;;;;;;;20.98;4.60;;;;;;;13.65;100.00;101180.72;5024516;28;87808;-80
2022/09/18 09:18:00;;;;;;;17.58;2.72;;;;;;;13.55;100.00;101175.13;5034182;28;20072;-81
2022/09/18 09:20:52;;;;;;;12.18;2.97;;;;;;;13.46;100.00;101179.53;5032310;28;20034;-78
2022/09/18 09:23:57;;;;;;;13.45;2.72;;;;;;;13.46;100.00;101175.91;5037144;28;20037;-78
2022/09/18 09:26:25;;;;;;;11.65;2.75;;;;;;;13.41;100.00;101168.06;5054015;28;20579;-79
2022/09/18 09:29:11;;;;;;;12.20;2.75;;;;;;;13.59;100.00;101176.59;5017724;28;20065;-78
2022/09/18 09:32:03;;;;;;;12.02;2.92;;;;;;;13.37;100.00;101175.72;5036043;28;20033;-78
2022/09/18 09:34:43;;;;;;;13.48;3.88;;;;;;;13.33;100.00;101177.00;5015521;28;20372;-77
2022/09/18 09:37:18;;;;;;;11.65;3.80;;;;;;;13.41;100.00;101174.47;5048034;28;20055;-79
2022/09/18 09:39:55;;;;;;;15.15;3.58;;;;;;;13.22;100.00;101180.63;5040494;28;20048;-78
2022/09/18 09:42:45;;;;;;;10.60;3.33;;;;;;;13.32;100.00;101177.09;5034605;28;20416;-78
2022/09/18 09:45:27;;;;;;;10.60;4.13;;;;;;;13.12;100.00;101170.53;5040229;28;20032;-79
2022/09/18 09:48:06;;;;;;;14.05;3.80;;;;;;;13.10;100.00;101169.78;5048791;28;20073;-78
2022/09/18 09:50:56;;;;;;;17.90;5.30;;;;;;;13.37;100.00;101170.22;5019259;28;20092;-78
2022/09/18 09:53:30;;;;;;;9.80;4.63;;;;;;;13.42;100.00;101170.69;5045644;28;20025;-78
2022/09/18 09:56:19;;;;;;;11.95;5.45;;;;;;;13.36;100.00;101165.72;5005202;28;20053;-79
2022/09/18 09:58:50;;;;;;;13.50;5.57;;;;;;;13.41;100.00;101176.31;5033794;28;20084;-79
2022/09/18 10:01:31;;;;;;;14.48;4.53;;;;;;;13.45;100.00;101169.56;5014587;28;20045;-78
2022/09/18 10:04:32;;;;;;;18.27;4.78;;;;;;;13.48;100.00;101171.16;5040064;28;20029;-79
2022/09/18 10:07:29;;;;;;;16.95;4.35;;;;;;;13.57;100.00;101162.13;5041150;28;20152;-78
2022/09/18 10:10:27;;;;;;;11.73;3.28;;;;;;;13.44;100.00;101158.69;5040871;28;20040;-79
2022/09/18 10:13:16;;;;;;;17.13;4.07;;;;;;;13.61;100.00;101163.59;5036309;28;20398;-78
2022/09/18 10:15:50;;;;;;;7.88;3.42;;;;;;;13.66;100.00;101160.44;5039267;28;20045;-79
2022/09/18 10:18:20;;;;;;;;;;;;;;;13.63;100.00;101161.59;5039998;28;20045;-79
2022/09/18 10:21:09;;;;;;;12.13;2.92;;;;;;;13.70;100.00;101149.03;5037347;28;19913;-78
2022/09/18 10:23:45;;;;;;;13.55;4.15;;;;;;;13.76;100.00;101156.75;5027779;28;20033;-78
2022/09/18 10:26:42;;;;;;;9.80;3.38;;;;;;;13.95;100.00;101152.34;5037203;28;20025;-78
2022/09/18 10:29:16;;;;;;;6.72;3.05;;;;;;;14.02;100.00;101150.81;5039962;28;20494;-78
2022/09/18 10:31:54;;;;;;;10.43;3.10;;;;;;;14.10;100.00;101153.75;5038245;28;20026;-78
2022/09/18 10:34:32;;;;;;;8.43;2.30;;;;;;;14.13;100.00;101152.59;5032212;28;20040;-79
2022/09/18 10:37:04;;;;;;;9.68;2.72;;;;;;;13.95;100.00;101149.59;5020975;28;20058;-79
2022/09/18 10:39:35;;;;;;;4.68;2.30;;;;;;;14.27;100.00;101156.88;5035857;28;20036;-79
2022/09/18 10:42:15;;;;;;;13.50;3.47;;;;;;;14.24;100.00;101157.16;5034024;28;20044;-78
2022/09/18 10:44:58;;;;;;;13.48;3.10;;;;;;;14.26;100.00;101163.38;5033472;28;20066;-77
2022/09/18 10:47:35;;;;;;;8.63;2.67;;;;;;;14.15;100.00;101156.97;5034194;28;20101;-78
2022/09/18 10:50:05;;;;;;;10.23;2.70;;;;;;;14.30;100.00;101151.97;5032921;28;20041;-78
2022/09/18 10:52:39;;;;;;;8.85;2.78;;;;;;;14.26;100.00;101158.75;5033513;28;20040;-78
2022/09/18 10:55:19;;;;;;;6.97;2.88;;;;;;;14.34;100.00;101152.56;5029694;28;20504;-79
2022/09/18 10:57:55;;;;;;;13.48;2.47;;;;;;;14.01;100.00;101146.31;5029117;28;20082;-79
2022/09/18 11:00:24;;;;;;;6.15;2.33;;;;;;;14.06;100.00;101148.66;5037813;28;20167;-81
2022/09/18 11:02:59;;;;;;;18.65;2.78;;;;;;;14.01;100.00;101143.56;5036171;28;20038;-80
2022/09/18 11:05:36;;;;;;;13.05;2.22;;;;;;;13.91;100.00;101140.75;5037103;28;20025;-81
2022/09/18 11:08:24;;;;;;;21.52;2.75;;;;;;;13.81;100.00;101156.34;5035811;28;20049;-79
2022/09/18 11:11:01;;;;;;;14.82;2.83;;;;;;;13.57;100.00;101151.09;5029344;28;20080;-78
2022/09/18 11:13:50;;;;;;;15.15;3.40;;;;;;;13.30;100.00;101140.56;5022231;28;20021;-81
2022/09/18 11:16:23;;;;;;;15.70;3.30;;;;;;;13.25;100.00;101132.75;5038859;28;20033;-82
2022/09/18 11:19:00;;;;;;;16.40;3.65;;;;;;;13.23;100.00;101134.72;5036246;28;20379;-81
2022/09/18 11:21:45;;;;;;;6.15;2.60;;;;;;;13.14;100.00;101139.16;5023166;28;20157;-81
2022/09/18 11:24:21;;;;;;;5.80;2.38;;;;;;;13.13;100.00;101136.53;5036770;28;20060;-79
2022/09/18 11:26:52;;;;;;;6.93;2.70;;;;;;;13.24;100.00;101144.75;5035087;28;20037;-79
2022/09/18 11:29:41;;;;;;;8.27;2.20;;;;;;;13.26;100.00;101152.84;5035781;28;20380;-78
2022/09/18 11:32:29;;;;;;;14.75;2.33;;;;;;;13.24;100.00;101153.84;5032552;28;20038;-78
2022/09/18 11:35:03;;;;;;;9.18;1.70;;;;;;;13.31;100.00;101156.94;5038721;28;20426;-78
2022/09/18 11:37:35;;;;;;;9.23;1.35;;;;;;;13.44;100.00;101169.69;5038660;28;20108;-78
2022/09/18 11:40:07;;;;;;;14.88;2.83;;;;;;;13.64;100.00;101163.31;5036651;28;20044;-78
2022/09/18 11:42:43;;;;;;;7.25;1.40;;;;;;;13.56;100.00;101168.59;5034898;28;20029;-78
2022/09/18 11:45:25;;;;;;;10.57;2.05;;;;;;;13.47;100.00;101174.94;5035881;28;20053;-78
2022/09/18 11:47:56;;;;;;;8.30;2.00;;;;;;;13.40;100.00;101167.19;5034352;28;20526;-78